sensor_id;sensor_type;location;lat;lon;timestamp;temperature;humidity
71994;DHT22;59861;50.268;8.648;2023-05-10T00:00:16;17.30;68.50
71994;DHT22;59861;50.268;8.648;2023-05-10T00:02:43;17.30;68.50
71994;DHT22;59861;50.268;8.648;2023-05-10T00:05:10;17.30;68.60
71994;DHT22;59861;50.268;8.648;2023-05-10T00:07:37;17.30;68.50
71994;DHT22;59861;50.268;8.648;2023-05-10T00:10:04;17.30;68.60
71994;DHT22;59861;50.268;8.648;2023-05-10T00:12:31;17.30;68.50
71994;DHT22;59861;50.268;8.648;2023-05-10T00:14:57;17.30;68.50
71994;DHT22;59861;50.268;8.648;2023-05-10T00:17:24;17.30;68.50
71994;DHT22;59861;50.268;8.648;2023-05-10T00:19:51;17.30;68.40
71994;DHT22;59861;50.268;8.648;2023-05-10T00:22:18;17.30;68.60
71994;DHT22;59861;50.268;8.648;2023-05-10T00:24:45;17.30;68.40
71994;DHT22;59861;50.268;8.648;2023-05-10T00:27:11;17.30;68.60
71994;DHT22;59861;50.268;8.648;2023-05-10T00:29:38;17.30;68.50
71994;DHT22;59861;50.268;8.648;2023-05-10T00:32:05;17.30;68.40
71994;DHT22;59861;50.268;8.648;2023-05-10T00:34:32;17.30;68.40
71994;DHT22;59861;50.268;8.648;2023-05-10T00:36:59;17.30;68.40
71994;DHT22;59861;50.268;8.648;2023-05-10T00:39:26;17.30;68.40
71994;DHT22;59861;50.268;8.648;2023-05-10T00:41:54;17.30;68.50
71994;DHT22;59861;50.268;8.648;2023-05-10T00:44:21;17.30;68.40
71994;DHT22;59861;50.268;8.648;2023-05-10T00:46:48;17.30;68.40
71994;DHT22;59861;50.268;8.648;2023-05-10T00:49:15;17.30;68.40
71994;DHT22;59861;50.268;8.648;2023-05-10T00:51:43;17.30;68.30
71994;DHT22;59861;50.268;8.648;2023-05-10T00:54:15;17.30;68.40
71994;DHT22;59861;50.268;8.648;2023-05-10T00:56:39;17.30;68.30
71994;DHT22;59861;50.268;8.648;2023-05-10T00:59:06;17.30;68.30
71994;DHT22;59861;50.268;8.648;2023-05-10T01:01:34;17.30;68.30
71994;DHT22;59861;50.268;8.648;2023-05-10T01:04:02;17.30;68.30
71994;DHT22;59861;50.268;8.648;2023-05-10T01:06:29;17.30;68.30
71994;DHT22;59861;50.268;8.648;2023-05-10T01:08:56;17.30;68.20
71994;DHT22;59861;50.268;8.648;2023-05-10T01:11:22;17.30;68.20
71994;DHT22;59861;50.268;8.648;2023-05-10T01:13:51;17.30;68.20
71994;DHT22;59861;50.268;8.648;2023-05-10T01:16:17;17.30;69.10
71994;DHT22;59861;50.268;8.648;2023-05-10T01:18:44;17.30;68.30
71994;DHT22;59861;50.268;8.648;2023-05-10T01:21:17;17.30;68.70
71994;DHT22;59861;50.268;8.648;2023-05-10T01:23:45;17.30;68.30
71994;DHT22;59861;50.268;8.648;2023-05-10T01:26:17;17.30;68.30
71994;DHT22;59861;50.268;8.648;2023-05-10T01:33:43;17.30;68.20
71994;DHT22;59861;50.268;8.648;2023-05-10T01:36:23;17.30;68.20
71994;DHT22;59861;50.268;8.648;2023-05-10T01:38:50;17.30;68.20
71994;DHT22;59861;50.268;8.648;2023-05-10T01:41:33;17.30;68.30
71994;DHT22;59861;50.268;8.648;2023-05-10T01:44:02;17.20;68.10
71994;DHT22;59861;50.268;8.648;2023-05-10T01:46:36;17.30;68.20
71994;DHT22;59861;50.268;8.648;2023-05-10T01:49:03;17.30;68.20
71994;DHT22;59861;50.268;8.648;2023-05-10T01:51:35;17.20;68.10
71994;DHT22;59861;50.268;8.648;2023-05-10T01:54:01;17.20;68.20
71994;DHT22;59861;50.268;8.648;2023-05-10T01:56:29;17.20;68.10
71994;DHT22;59861;50.268;8.648;2023-05-10T01:58:56;17.20;68.10
71994;DHT22;59861;50.268;8.648;2023-05-10T02:01:25;17.30;68.10
71994;DHT22;59861;50.268;8.648;2023-05-10T02:03:52;17.30;68.10
71994;DHT22;59861;50.268;8.648;2023-05-10T02:06:20;17.20;68.00
71994;DHT22;59861;50.268;8.648;2023-05-10T02:08:47;17.20;68.00
71994;DHT22;59861;50.268;8.648;2023-05-10T02:11:15;17.20;67.90
71994;DHT22;59861;50.268;8.648;2023-05-10T02:13:44;17.20;68.00
71994;DHT22;59861;50.268;8.648;2023-05-10T02:16:13;17.30;68.20
71994;DHT22;59861;50.268;8.648;2023-05-10T02:18:40;17.20;68.00
71994;DHT22;59861;50.268;8.648;2023-05-10T02:21:07;17.20;68.00
71994;DHT22;59861;50.268;8.648;2023-05-10T02:23:34;17.20;67.90
71994;DHT22;59861;50.268;8.648;2023-05-10T02:26:03;17.20;68.00
71994;DHT22;59861;50.268;8.648;2023-05-10T02:28:31;17.20;68.90
71994;DHT22;59861;50.268;8.648;2023-05-10T02:30:58;17.20;68.10
71994;DHT22;59861;50.268;8.648;2023-05-10T02:33:25;17.20;68.10
71994;DHT22;59861;50.268;8.648;2023-05-10T02:35:53;17.20;67.90
71994;DHT22;59861;50.268;8.648;2023-05-10T02:38:20;17.20;67.90
71994;DHT22;59861;50.268;8.648;2023-05-10T02:40:48;17.20;68.00
71994;DHT22;59861;50.268;8.648;2023-05-10T02:43:15;17.20;67.90
71994;DHT22;59861;50.268;8.648;2023-05-10T02:45:44;17.20;67.90
71994;DHT22;59861;50.268;8.648;2023-05-10T02:48:12;17.20;67.90
71994;DHT22;59861;50.268;8.648;2023-05-10T02:50:39;17.20;67.90
71994;DHT22;59861;50.268;8.648;2023-05-10T02:53:09;17.20;67.90
71994;DHT22;59861;50.268;8.648;2023-05-10T02:55:36;17.20;67.90
71994;DHT22;59861;50.268;8.648;2023-05-10T02:58:03;17.20;67.80
71994;DHT22;59861;50.268;8.648;2023-05-10T03:00:30;17.20;67.90
71994;DHT22;59861;50.268;8.648;2023-05-10T03:02:58;17.20;67.80
71994;DHT22;59861;50.268;8.648;2023-05-10T03:05:25;17.20;68.00
71994;DHT22;59861;50.268;8.648;2023-05-10T03:07:51;17.20;67.90
71994;DHT22;59861;50.268;8.648;2023-05-10T03:10:19;17.20;67.90
71994;DHT22;59861;50.268;8.648;2023-05-10T03:13:48;17.20;67.80
71994;DHT22;59861;50.268;8.648;2023-05-10T03:15:43;17.20;67.80
71994;DHT22;59861;50.268;8.648;2023-05-10T03:18:10;17.20;67.90
71994;DHT22;59861;50.268;8.648;2023-05-10T03:20:46;17.20;67.80
71994;DHT22;59861;50.268;8.648;2023-05-10T03:25:37;17.20;67.80
71994;DHT22;59861;50.268;8.648;2023-05-10T03:28:05;17.20;68.90
71994;DHT22;59861;50.268;8.648;2023-05-10T03:30:32;17.20;67.80
71994;DHT22;59861;50.268;8.648;2023-05-10T03:33:04;17.20;67.80
71994;DHT22;59861;50.268;8.648;2023-05-10T03:35:28;17.20;67.80
71994;DHT22;59861;50.268;8.648;2023-05-10T03:37:55;17.20;67.70
71994;DHT22;59861;50.268;8.648;2023-05-10T03:40:22;17.20;67.80
71994;DHT22;59861;50.268;8.648;2023-05-10T03:42:49;17.20;67.70
71994;DHT22;59861;50.268;8.648;2023-05-10T03:45:16;17.20;67.60
71994;DHT22;59861;50.268;8.648;2023-05-10T03:47:43;17.20;67.70
71994;DHT22;59861;50.268;8.648;2023-05-10T03:50:10;17.20;67.60
71994;DHT22;59861;50.268;8.648;2023-05-10T03:52:36;17.20;67.60
71994;DHT22;59861;50.268;8.648;2023-05-10T03:55:05;17.20;67.60
71994;DHT22;59861;50.268;8.648;2023-05-10T03:57:32;17.20;67.70
71994;DHT22;59861;50.268;8.648;2023-05-10T03:59:59;17.20;67.70
71994;DHT22;59861;50.268;8.648;2023-05-10T04:02:25;17.20;67.60
71994;DHT22;59861;50.268;8.648;2023-05-10T04:04:52;17.20;67.60
71994;DHT22;59861;50.268;8.648;2023-05-10T04:07:19;17.20;67.60
71994;DHT22;59861;50.268;8.648;2023-05-10T04:09:46;17.20;67.60
71994;DHT22;59861;50.268;8.648;2023-05-10T04:12:13;17.20;67.60
71994;DHT22;59861;50.268;8.648;2023-05-10T04:14:40;17.20;67.60
71994;DHT22;59861;50.268;8.648;2023-05-10T04:17:07;17.20;67.60
71994;DHT22;59861;50.268;8.648;2023-05-10T04:19:33;17.20;67.50
71994;DHT22;59861;50.268;8.648;2023-05-10T04:22:01;17.20;67.60
71994;DHT22;59861;50.268;8.648;2023-05-10T04:24:28;17.20;67.60
71994;DHT22;59861;50.268;8.648;2023-05-10T04:26:55;17.20;67.60
71994;DHT22;59861;50.268;8.648;2023-05-10T04:29:22;17.20;67.60
71994;DHT22;59861;50.268;8.648;2023-05-10T04:31:48;17.20;67.60
71994;DHT22;59861;50.268;8.648;2023-05-10T04:34:16;17.20;67.60
71994;DHT22;59861;50.268;8.648;2023-05-10T04:36:43;17.10;67.50
71994;DHT22;59861;50.268;8.648;2023-05-10T04:39:10;17.10;67.50
71994;DHT22;59861;50.268;8.648;2023-05-10T04:41:37;17.20;67.50
71994;DHT22;59861;50.268;8.648;2023-05-10T04:44:04;17.10;67.40
71994;DHT22;59861;50.268;8.648;2023-05-10T04:46:31;17.20;67.60
71994;DHT22;59861;50.268;8.648;2023-05-10T04:48:57;17.10;67.50
71994;DHT22;59861;50.268;8.648;2023-05-10T04:51:24;17.10;67.40
71994;DHT22;59861;50.268;8.648;2023-05-10T04:53:51;17.10;67.50
71994;DHT22;59861;50.268;8.648;2023-05-10T04:56:18;17.20;67.60
71994;DHT22;59861;50.268;8.648;2023-05-10T04:58:45;17.10;67.70
71994;DHT22;59861;50.268;8.648;2023-05-10T05:01:12;17.20;67.60
71994;DHT22;59861;50.268;8.648;2023-05-10T05:03:38;17.10;67.40
71994;DHT22;59861;50.268;8.648;2023-05-10T05:06:05;17.10;67.60
71994;DHT22;59861;50.268;8.648;2023-05-10T05:08:32;17.10;67.40
71994;DHT22;59861;50.268;8.648;2023-05-10T05:10:59;17.10;67.40
71994;DHT22;59861;50.268;8.648;2023-05-10T05:13:26;17.10;67.40
71994;DHT22;59861;50.268;8.648;2023-05-10T05:15:52;17.20;67.50
71994;DHT22;59861;50.268;8.648;2023-05-10T05:18:20;17.10;67.40
71994;DHT22;59861;50.268;8.648;2023-05-10T05:20:47;17.10;67.50
71994;DHT22;59861;50.268;8.648;2023-05-10T05:23:13;17.10;67.50
71994;DHT22;59861;50.268;8.648;2023-05-10T05:25:40;17.10;67.40
71994;DHT22;59861;50.268;8.648;2023-05-10T05:28:07;17.10;67.40
71994;DHT22;59861;50.268;8.648;2023-05-10T05:30:55;17.10;67.50
71994;DHT22;59861;50.268;8.648;2023-05-10T05:33:22;17.10;67.40
71994;DHT22;59861;50.268;8.648;2023-05-10T05:35:49;17.10;66.70
71994;DHT22;59861;50.268;8.648;2023-05-10T05:38:16;17.10;67.40
71994;DHT22;59861;50.268;8.648;2023-05-10T05:40:43;17.10;67.50
71994;DHT22;59861;50.268;8.648;2023-05-10T05:43:11;17.10;67.50
71994;DHT22;59861;50.268;8.648;2023-05-10T05:45:38;17.10;67.50
71994;DHT22;59861;50.268;8.648;2023-05-10T05:48:04;17.10;67.50
71994;DHT22;59861;50.268;8.648;2023-05-10T05:50:31;17.10;68.30
71994;DHT22;59861;50.268;8.648;2023-05-10T05:52:58;17.10;67.40
71994;DHT22;59861;50.268;8.648;2023-05-10T05:55:25;17.10;67.50
71994;DHT22;59861;50.268;8.648;2023-05-10T05:57:52;17.10;67.50
71994;DHT22;59861;50.268;8.648;2023-05-10T06:00:19;17.10;67.40
71994;DHT22;59861;50.268;8.648;2023-05-10T06:02:47;17.10;67.40
71994;DHT22;59861;50.268;8.648;2023-05-10T06:05:13;17.10;67.40
71994;DHT22;59861;50.268;8.648;2023-05-10T06:07:40;17.10;67.40
71994;DHT22;59861;50.268;8.648;2023-05-10T06:10:09;17.10;67.40
71994;DHT22;59861;50.268;8.648;2023-05-10T06:12:36;17.10;67.40
71994;DHT22;59861;50.268;8.648;2023-05-10T06:15:03;17.10;67.40
71994;DHT22;59861;50.268;8.648;2023-05-10T06:17:30;17.10;67.40
71994;DHT22;59861;50.268;8.648;2023-05-10T06:19:57;17.10;68.40
71994;DHT22;59861;50.268;8.648;2023-05-10T06:22:24;17.10;67.60
71994;DHT22;59861;50.268;8.648;2023-05-10T06:24:51;17.10;67.50
71994;DHT22;59861;50.268;8.648;2023-05-10T06:27:18;17.10;67.50
71994;DHT22;59861;50.268;8.648;2023-05-10T06:29:44;17.10;67.40
71994;DHT22;59861;50.268;8.648;2023-05-10T06:32:11;17.10;67.50
71994;DHT22;59861;50.268;8.648;2023-05-10T06:34:38;17.10;67.40
71994;DHT22;59861;50.268;8.648;2023-05-10T06:37:05;17.10;67.40
71994;DHT22;59861;50.268;8.648;2023-05-10T06:39:32;17.10;67.40
71994;DHT22;59861;50.268;8.648;2023-05-10T06:41:59;17.10;67.40
71994;DHT22;59861;50.268;8.648;2023-05-10T06:44:27;17.10;67.40
71994;DHT22;59861;50.268;8.648;2023-05-10T06:46:54;17.10;67.40
71994;DHT22;59861;50.268;8.648;2023-05-10T06:49:21;17.10;67.40
71994;DHT22;59861;50.268;8.648;2023-05-10T06:51:48;17.10;67.40
71994;DHT22;59861;50.268;8.648;2023-05-10T06:54:15;17.10;67.40
71994;DHT22;59861;50.268;8.648;2023-05-10T06:56:42;17.10;67.40
71994;DHT22;59861;50.268;8.648;2023-05-10T06:59:09;17.10;67.30
71994;DHT22;59861;50.268;8.648;2023-05-10T07:01:35;17.10;67.40
71994;DHT22;59861;50.268;8.648;2023-05-10T07:04:02;17.10;67.30
71994;DHT22;59861;50.268;8.648;2023-05-10T07:06:29;17.10;67.40
71994;DHT22;59861;50.268;8.648;2023-05-10T07:08:56;17.10;67.30
71994;DHT22;59861;50.268;8.648;2023-05-10T07:11:23;17.10;67.40
71994;DHT22;59861;50.268;8.648;2023-05-10T07:13:50;17.10;67.40
71994;DHT22;59861;50.268;8.648;2023-05-10T07:16:16;17.10;67.40
71994;DHT22;59861;50.268;8.648;2023-05-10T07:18:43;17.10;67.30
71994;DHT22;59861;50.268;8.648;2023-05-10T07:21:10;17.10;67.40
71994;DHT22;59861;50.268;8.648;2023-05-10T07:23:37;17.10;67.40
71994;DHT22;59861;50.268;8.648;2023-05-10T07:26:04;17.10;67.30
71994;DHT22;59861;50.268;8.648;2023-05-10T07:28:31;17.10;67.40
71994;DHT22;59861;50.268;8.648;2023-05-10T07:30:57;17.10;67.30
71994;DHT22;59861;50.268;8.648;2023-05-10T07:33:24;17.10;67.40
71994;DHT22;59861;50.268;8.648;2023-05-10T07:35:51;17.10;67.30
71994;DHT22;59861;50.268;8.648;2023-05-10T07:38:18;17.10;67.40
71994;DHT22;59861;50.268;8.648;2023-05-10T07:40:44;17.10;67.30
71994;DHT22;59861;50.268;8.648;2023-05-10T07:43:11;17.10;67.80
71994;DHT22;59861;50.268;8.648;2023-05-10T07:45:38;17.10;67.30
71994;DHT22;59861;50.268;8.648;2023-05-10T07:48:05;17.10;67.40
71994;DHT22;59861;50.268;8.648;2023-05-10T07:50:32;17.10;67.40
71994;DHT22;59861;50.268;8.648;2023-05-10T07:52:58;17.10;67.30
71994;DHT22;59861;50.268;8.648;2023-05-10T07:55:26;17.10;67.30
71994;DHT22;59861;50.268;8.648;2023-05-10T07:57:52;17.10;67.30
71994;DHT22;59861;50.268;8.648;2023-05-10T08:00:20;17.10;67.40
71994;DHT22;59861;50.268;8.648;2023-05-10T08:02:46;17.10;67.40
71994;DHT22;59861;50.268;8.648;2023-05-10T08:05:13;17.10;67.30
71994;DHT22;59861;50.268;8.648;2023-05-10T08:07:40;17.10;67.20
71994;DHT22;59861;50.268;8.648;2023-05-10T08:10:08;17.10;67.30
71994;DHT22;59861;50.268;8.648;2023-05-10T08:12:35;17.10;67.30
71994;DHT22;59861;50.268;8.648;2023-05-10T08:15:02;17.10;67.30
71994;DHT22;59861;50.268;8.648;2023-05-10T08:17:29;17.10;67.30
71994;DHT22;59861;50.268;8.648;2023-05-10T08:19:55;17.10;67.30
71994;DHT22;59861;50.268;8.648;2023-05-10T08:22:22;17.10;67.20
71994;DHT22;59861;50.268;8.648;2023-05-10T08:24:49;17.10;67.20
71994;DHT22;59861;50.268;8.648;2023-05-10T08:27:16;17.10;67.30
71994;DHT22;59861;50.268;8.648;2023-05-10T08:29:43;17.10;67.20
71994;DHT22;59861;50.268;8.648;2023-05-10T08:32:09;17.10;67.20
71994;DHT22;59861;50.268;8.648;2023-05-10T08:34:36;17.10;67.20
71994;DHT22;59861;50.268;8.648;2023-05-10T08:37:03;17.10;67.20
71994;DHT22;59861;50.268;8.648;2023-05-10T08:39:33;17.10;67.20
71994;DHT22;59861;50.268;8.648;2023-05-10T08:41:58;17.10;67.20
71994;DHT22;59861;50.268;8.648;2023-05-10T08:44:26;17.10;67.20
71994;DHT22;59861;50.268;8.648;2023-05-10T08:46:54;17.10;67.20
71994;DHT22;59861;50.268;8.648;2023-05-10T08:49:21;17.10;67.20
71994;DHT22;59861;50.268;8.648;2023-05-10T08:51:50;17.10;67.30
71994;DHT22;59861;50.268;8.648;2023-05-10T08:54:16;17.10;67.20
71994;DHT22;59861;50.268;8.648;2023-05-10T08:56:43;17.10;67.30
71994;DHT22;59861;50.268;8.648;2023-05-10T08:59:10;17.10;67.30
71994;DHT22;59861;50.268;8.648;2023-05-10T09:01:39;17.10;67.20
71994;DHT22;59861;50.268;8.648;2023-05-10T09:04:06;17.10;67.20
71994;DHT22;59861;50.268;8.648;2023-05-10T09:06:33;17.10;67.20
71994;DHT22;59861;50.268;8.648;2023-05-10T09:09:01;17.10;67.20
71994;DHT22;59861;50.268;8.648;2023-05-10T09:11:29;17.10;67.10
71994;DHT22;59861;50.268;8.648;2023-05-10T09:13:55;17.10;67.20
71994;DHT22;59861;50.268;8.648;2023-05-10T09:16:23;17.10;67.20
71994;DHT22;59861;50.268;8.648;2023-05-10T09:18:50;17.10;67.20
71994;DHT22;59861;50.268;8.648;2023-05-10T09:21:18;17.10;67.10
71994;DHT22;59861;50.268;8.648;2023-05-10T09:23:46;17.10;67.20
71994;DHT22;59861;50.268;8.648;2023-05-10T09:26:13;17.10;67.10
71994;DHT22;59861;50.268;8.648;2023-05-10T09:28:50;17.10;67.20
71994;DHT22;59861;50.268;8.648;2023-05-10T09:31:14;17.10;67.30
71994;DHT22;59861;50.268;8.648;2023-05-10T09:33:44;17.10;67.20
71994;DHT22;59861;50.268;8.648;2023-05-10T09:36:13;17.10;67.20
71994;DHT22;59861;50.268;8.648;2023-05-10T09:38:47;17.10;67.20
71994;DHT22;59861;50.268;8.648;2023-05-10T09:41:22;17.10;67.10
71994;DHT22;59861;50.268;8.648;2023-05-10T09:43:45;17.10;67.10
71994;DHT22;59861;50.268;8.648;2023-05-10T09:46:12;17.10;67.10
71994;DHT22;59861;50.268;8.648;2023-05-10T09:48:43;17.10;67.10
71994;DHT22;59861;50.268;8.648;2023-05-10T09:51:10;17.10;67.00
71994;DHT22;59861;50.268;8.648;2023-05-10T09:53:37;17.10;67.10
71994;DHT22;59861;50.268;8.648;2023-05-10T09:56:04;17.10;67.10
71994;DHT22;59861;50.268;8.648;2023-05-10T09:58:31;17.10;67.10
71994;DHT22;59861;50.268;8.648;2023-05-10T10:00:59;17.10;67.10
71994;DHT22;59861;50.268;8.648;2023-05-10T10:03:26;17.10;67.20
71994;DHT22;59861;50.268;8.648;2023-05-10T10:05:52;17.10;67.10
71994;DHT22;59861;50.268;8.648;2023-05-10T10:08:21;17.10;67.20
71994;DHT22;59861;50.268;8.648;2023-05-10T10:10:48;17.10;67.10
71994;DHT22;59861;50.268;8.648;2023-05-10T10:13:14;17.10;67.10
71994;DHT22;59861;50.268;8.648;2023-05-10T10:15:43;17.10;67.10
71994;DHT22;59861;50.268;8.648;2023-05-10T10:18:14;17.10;67.20
71994;DHT22;59861;50.268;8.648;2023-05-10T10:20:41;17.10;67.10
71994;DHT22;59861;50.268;8.648;2023-05-10T10:23:08;17.10;67.20
71994;DHT22;59861;50.268;8.648;2023-05-10T10:25:35;17.10;67.20
71994;DHT22;59861;50.268;8.648;2023-05-10T10:28:11;17.10;67.20
71994;DHT22;59861;50.268;8.648;2023-05-10T10:30:39;17.10;67.10
71994;DHT22;59861;50.268;8.648;2023-05-10T10:35:51;17.10;67.10
71994;DHT22;59861;50.268;8.648;2023-05-10T10:38:18;17.10;67.20
71994;DHT22;59861;50.268;8.648;2023-05-10T10:40:45;17.10;67.20
71994;DHT22;59861;50.268;8.648;2023-05-10T10:43:25;17.10;67.20
71994;DHT22;59861;50.268;8.648;2023-05-10T10:46:11;17.10;67.20
71994;DHT22;59861;50.268;8.648;2023-05-10T10:48:39;17.10;67.20
71994;DHT22;59861;50.268;8.648;2023-05-10T10:51:06;17.10;67.30
71994;DHT22;59861;50.268;8.648;2023-05-10T10:53:33;17.10;67.20
71994;DHT22;59861;50.268;8.648;2023-05-10T10:56:06;17.10;67.20
71994;DHT22;59861;50.268;8.648;2023-05-10T10:58:35;17.10;67.30
71994;DHT22;59861;50.268;8.648;2023-05-10T11:01:16;17.10;67.20
71994;DHT22;59861;50.268;8.648;2023-05-10T11:06:30;17.10;67.30
71994;DHT22;59861;50.268;8.648;2023-05-10T11:09:04;17.10;67.20
71994;DHT22;59861;50.268;8.648;2023-05-10T11:11:28;17.10;67.20
71994;DHT22;59861;50.268;8.648;2023-05-10T11:13:55;17.10;67.30
71994;DHT22;59861;50.268;8.648;2023-05-10T11:16:24;17.10;67.30
71994;DHT22;59861;50.268;8.648;2023-05-10T11:18:59;17.10;67.80
71994;DHT22;59861;50.268;8.648;2023-05-10T11:21:27;17.10;67.30
71994;DHT22;59861;50.268;8.648;2023-05-10T11:23:56;17.10;67.30
71994;DHT22;59861;50.268;8.648;2023-05-10T11:26:23;17.10;67.30
71994;DHT22;59861;50.268;8.648;2023-05-10T11:28:54;17.10;67.30
71994;DHT22;59861;50.268;8.648;2023-05-10T11:31:21;17.10;67.30
71994;DHT22;59861;50.268;8.648;2023-05-10T11:33:49;17.10;67.30
71994;DHT22;59861;50.268;8.648;2023-05-10T11:36:23;17.10;67.20
71994;DHT22;59861;50.268;8.648;2023-05-10T11:38:45;17.10;67.20
71994;DHT22;59861;50.268;8.648;2023-05-10T11:41:12;17.10;67.20
71994;DHT22;59861;50.268;8.648;2023-05-10T11:43:39;17.10;67.30
71994;DHT22;59861;50.268;8.648;2023-05-10T11:46:07;17.10;67.20
71994;DHT22;59861;50.268;8.648;2023-05-10T11:48:34;17.10;67.20
71994;DHT22;59861;50.268;8.648;2023-05-10T11:51:01;17.10;67.20
71994;DHT22;59861;50.268;8.648;2023-05-10T11:53:32;17.10;67.20
71994;DHT22;59861;50.268;8.648;2023-05-10T11:56:06;17.10;67.30
71994;DHT22;59861;50.268;8.648;2023-05-10T11:58:26;17.10;67.30
71994;DHT22;59861;50.268;8.648;2023-05-10T12:00:53;17.10;67.30
71994;DHT22;59861;50.268;8.648;2023-05-10T12:03:19;17.10;67.40
71994;DHT22;59861;50.268;8.648;2023-05-10T12:05:46;17.10;67.30
71994;DHT22;59861;50.268;8.648;2023-05-10T12:08:14;17.10;67.30
71994;DHT22;59861;50.268;8.648;2023-05-10T12:10:41;17.10;67.30
71994;DHT22;59861;50.268;8.648;2023-05-10T12:13:13;17.10;67.30
71994;DHT22;59861;50.268;8.648;2023-05-10T12:15:36;17.10;67.20
71994;DHT22;59861;50.268;8.648;2023-05-10T12:18:03;17.10;67.40
71994;DHT22;59861;50.268;8.648;2023-05-10T12:20:31;17.10;67.30
71994;DHT22;59861;50.268;8.648;2023-05-10T12:22:58;17.10;67.30
71994;DHT22;59861;50.268;8.648;2023-05-10T12:25:29;17.10;67.30
71994;DHT22;59861;50.268;8.648;2023-05-10T12:27:55;17.10;67.30
71994;DHT22;59861;50.268;8.648;2023-05-10T12:30:23;17.10;67.40
71994;DHT22;59861;50.268;8.648;2023-05-10T12:32:50;17.10;67.30
71994;DHT22;59861;50.268;8.648;2023-05-10T12:35:17;17.10;67.40
71994;DHT22;59861;50.268;8.648;2023-05-10T12:37:45;17.10;67.30
71994;DHT22;59861;50.268;8.648;2023-05-10T12:40:12;17.10;67.30
71994;DHT22;59861;50.268;8.648;2023-05-10T12:42:39;17.20;67.40
71994;DHT22;59861;50.268;8.648;2023-05-10T12:45:06;17.10;67.40
71994;DHT22;59861;50.268;8.648;2023-05-10T12:47:34;17.10;67.40
71994;DHT22;59861;50.268;8.648;2023-05-10T12:50:01;17.10;67.40
71994;DHT22;59861;50.268;8.648;2023-05-10T12:52:28;17.10;67.40
71994;DHT22;59861;50.268;8.648;2023-05-10T12:54:55;17.10;67.40
71994;DHT22;59861;50.268;8.648;2023-05-10T12:57:22;17.10;67.40
71994;DHT22;59861;50.268;8.648;2023-05-10T12:59:49;17.10;67.40
71994;DHT22;59861;50.268;8.648;2023-05-10T13:02:16;17.10;67.40
71994;DHT22;59861;50.268;8.648;2023-05-10T13:04:47;17.10;67.40
71994;DHT22;59861;50.268;8.648;2023-05-10T13:07:14;17.10;67.40
71994;DHT22;59861;50.268;8.648;2023-05-10T13:09:40;17.10;67.40
71994;DHT22;59861;50.268;8.648;2023-05-10T13:12:07;17.10;67.40
71994;DHT22;59861;50.268;8.648;2023-05-10T13:14:34;17.10;67.40
71994;DHT22;59861;50.268;8.648;2023-05-10T13:17:01;17.10;67.40
71994;DHT22;59861;50.268;8.648;2023-05-10T13:19:28;17.10;67.50
71994;DHT22;59861;50.268;8.648;2023-05-10T13:21:54;17.10;67.40
71994;DHT22;59861;50.268;8.648;2023-05-10T13:24:21;17.10;67.40
71994;DHT22;59861;50.268;8.648;2023-05-10T13:26:48;17.10;67.40
71994;DHT22;59861;50.268;8.648;2023-05-10T13:29:15;17.10;67.40
71994;DHT22;59861;50.268;8.648;2023-05-10T13:31:43;17.10;67.40
71994;DHT22;59861;50.268;8.648;2023-05-10T13:34:10;17.10;67.40
71994;DHT22;59861;50.268;8.648;2023-05-10T13:36:37;17.10;67.40
71994;DHT22;59861;50.268;8.648;2023-05-10T13:39:04;17.10;67.40
71994;DHT22;59861;50.268;8.648;2023-05-10T13:41:31;17.10;67.40
71994;DHT22;59861;50.268;8.648;2023-05-10T13:43:57;17.10;67.40
71994;DHT22;59861;50.268;8.648;2023-05-10T13:46:24;17.10;67.40
71994;DHT22;59861;50.268;8.648;2023-05-10T13:48:51;17.10;67.30
71994;DHT22;59861;50.268;8.648;2023-05-10T13:51:18;17.10;67.40
71994;DHT22;59861;50.268;8.648;2023-05-10T13:53:45;17.10;67.50
71994;DHT22;59861;50.268;8.648;2023-05-10T13:56:13;17.10;67.40
71994;DHT22;59861;50.268;8.648;2023-05-10T13:58:40;17.10;67.40
71994;DHT22;59861;50.268;8.648;2023-05-10T14:01:07;17.10;67.40
71994;DHT22;59861;50.268;8.648;2023-05-10T14:03:33;17.10;67.60
71994;DHT22;59861;50.268;8.648;2023-05-10T14:06:00;17.10;67.40
71994;DHT22;59861;50.268;8.648;2023-05-10T14:08:27;17.10;67.40
71994;DHT22;59861;50.268;8.648;2023-05-10T14:10:54;17.10;67.40
71994;DHT22;59861;50.268;8.648;2023-05-10T14:13:23;17.10;67.40
71994;DHT22;59861;50.268;8.648;2023-05-10T14:15:50;17.10;67.40
71994;DHT22;59861;50.268;8.648;2023-05-10T14:18:17;17.10;67.30
71994;DHT22;59861;50.268;8.648;2023-05-10T14:20:44;17.10;67.40
71994;DHT22;59861;50.268;8.648;2023-05-10T14:23:11;17.10;67.40
71994;DHT22;59861;50.268;8.648;2023-05-10T14:25:39;17.10;67.30
71994;DHT22;59861;50.268;8.648;2023-05-10T14:28:06;17.10;67.40
71994;DHT22;59861;50.268;8.648;2023-05-10T14:30:33;17.10;67.40
71994;DHT22;59861;50.268;8.648;2023-05-10T14:33:01;17.10;67.30
71994;DHT22;59861;50.268;8.648;2023-05-10T14:35:28;17.10;67.30
71994;DHT22;59861;50.268;8.648;2023-05-10T14:37:56;17.10;67.40
71994;DHT22;59861;50.268;8.648;2023-05-10T14:40:24;17.10;67.40
71994;DHT22;59861;50.268;8.648;2023-05-10T14:42:51;17.10;68.30
71994;DHT22;59861;50.268;8.648;2023-05-10T14:45:18;17.10;67.40
71994;DHT22;59861;50.268;8.648;2023-05-10T14:47:45;17.10;67.40
71994;DHT22;59861;50.268;8.648;2023-05-10T14:50:12;17.10;67.50
71994;DHT22;59861;50.268;8.648;2023-05-10T14:52:39;17.10;67.40
71994;DHT22;59861;50.268;8.648;2023-05-10T14:55:06;17.10;67.40
71994;DHT22;59861;50.268;8.648;2023-05-10T14:57:33;17.10;67.40
71994;DHT22;59861;50.268;8.648;2023-05-10T15:00:00;17.10;67.50
71994;DHT22;59861;50.268;8.648;2023-05-10T15:02:26;17.10;67.50
71994;DHT22;59861;50.268;8.648;2023-05-10T15:04:53;17.10;67.40
71994;DHT22;59861;50.268;8.648;2023-05-10T15:07:20;17.10;67.60
71994;DHT22;59861;50.268;8.648;2023-05-10T15:09:47;17.10;67.40
71994;DHT22;59861;50.268;8.648;2023-05-10T15:12:14;17.10;67.50
71994;DHT22;59861;50.268;8.648;2023-05-10T15:14:40;17.10;67.40
71994;DHT22;59861;50.268;8.648;2023-05-10T15:17:07;17.10;67.50
71994;DHT22;59861;50.268;8.648;2023-05-10T15:19:34;17.10;67.50
71994;DHT22;59861;50.268;8.648;2023-05-10T15:22:02;17.10;67.50
71994;DHT22;59861;50.268;8.648;2023-05-10T15:24:29;17.10;67.50
71994;DHT22;59861;50.268;8.648;2023-05-10T15:26:55;17.10;67.50
71994;DHT22;59861;50.268;8.648;2023-05-10T15:29:22;17.10;67.60
71994;DHT22;59861;50.268;8.648;2023-05-10T15:31:49;17.10;67.60
71994;DHT22;59861;50.268;8.648;2023-05-10T15:34:17;17.10;67.60
71994;DHT22;59861;50.268;8.648;2023-05-10T15:36:44;17.10;67.10
71994;DHT22;59861;50.268;8.648;2023-05-10T15:39:11;17.10;67.80
71994;DHT22;59861;50.268;8.648;2023-05-10T15:41:38;17.10;67.70
71994;DHT22;59861;50.268;8.648;2023-05-10T15:44:05;17.10;67.60